sensor_id;sensor_type;location;lat;lon;timestamp;pressure;altitude;pressure_sealevel;temperature;humidity
61488;BME280;47351;53.326;-6.298;2023-02-11T00:01:49;103235.43;;;8.75;87.31
61488;BME280;47351;53.326;-6.298;2023-02-11T00:05:00;103240.04;;;8.79;87.22
61488;BME280;47351;53.326;-6.298;2023-02-11T00:07:59;103240.79;;;8.81;87.10
61488;BME280;47351;53.326;-6.298;2023-02-11T00:11:12;103243.59;;;8.82;86.96
61488;BME280;47351;53.326;-6.298;2023-02-11T00:14:23;103245.35;;;8.83;86.81
61488;BME280;47351;53.326;-6.298;2023-02-11T00:17:36;103239.71;;;8.81;86.59
61488;BME280;47351;53.326;-6.298;2023-02-11T00:20:38;103234.33;;;8.79;86.57
61488;BME280;47351;53.326;-6.298;2023-02-11T00:23:49;103230.39;;;8.76;86.54
61488;BME280;47351;53.326;-6.298;2023-02-11T00:27:01;103229.25;;;8.74;86.57
61488;BME280;47351;53.326;-6.298;2023-02-11T00:30:12;103227.92;;;8.72;86.55
61488;BME280;47351;53.326;-6.298;2023-02-11T00:33:17;103223.64;;;8.70;86.44
61488;BME280;47351;53.326;-6.298;2023-02-11T00:36:29;103216.75;;;8.66;86.49
61488;BME280;47351;53.326;-6.298;2023-02-11T00:39:40;103213.84;;;8.64;86.57
61488;BME280;47351;53.326;-6.298;2023-02-11T00:42:43;103213.38;;;8.62;86.72
61488;BME280;47351;53.326;-6.298;2023-02-11T00:45:46;103216.26;;;8.62;86.89
61488;BME280;47351;53.326;-6.298;2023-02-11T00:48:58;103216.39;;;8.63;87.11
61488;BME280;47351;53.326;-6.298;2023-02-11T00:52:09;103220.54;;;8.65;87.23
61488;BME280;47351;53.326;-6.298;2023-02-11T00:55:00;103219.46;;;8.68;87.19
61488;BME280;47351;53.326;-6.298;2023-02-11T00:57:54;103219.64;;;8.71;87.32
61488;BME280;47351;53.326;-6.298;2023-02-11T01:00:58;103224.05;;;8.75;87.25
61488;BME280;47351;53.326;-6.298;2023-02-11T01:04:09;103229.15;;;8.80;87.18
61488;BME280;47351;53.326;-6.298;2023-02-11T01:07:11;103232.73;;;8.83;87.15
61488;BME280;47351;53.326;-6.298;2023-02-11T01:10:22;103234.40;;;8.85;87.07
61488;BME280;47351;53.326;-6.298;2023-02-11T01:13:33;103232.80;;;8.85;86.82
61488;BME280;47351;53.326;-6.298;2023-02-11T01:16:45;103235.77;;;8.82;86.70
61488;BME280;47351;53.326;-6.298;2023-02-11T01:19:56;103235.20;;;8.79;86.75
61488;BME280;47351;53.326;-6.298;2023-02-11T01:23:00;103238.58;;;8.77;86.84
61488;BME280;47351;53.326;-6.298;2023-02-11T01:26:11;103237.66;;;8.74;86.83
61488;BME280;47351;53.326;-6.298;2023-02-11T01:29:22;103237.83;;;8.71;86.80
61488;BME280;47351;53.326;-6.298;2023-02-11T01:32:33;103232.54;;;8.66;86.90
61488;BME280;47351;53.326;-6.298;2023-02-11T01:35:36;103229.15;;;8.63;87.10
61488;BME280;47351;53.326;-6.298;2023-02-11T01:38:47;103230.84;;;8.62;87.25
61488;BME280;47351;53.326;-6.298;2023-02-11T01:41:58;103217.91;;;8.61;87.59
61488;BME280;47351;53.326;-6.298;2023-02-11T01:44:55;103208.31;;;8.60;87.72
61488;BME280;47351;53.326;-6.298;2023-02-11T01:48:07;103203.43;;;8.58;87.75
61488;BME280;47351;53.326;-6.298;2023-02-11T01:51:21;103199.90;;;8.55;87.93
61488;BME280;47351;53.326;-6.298;2023-02-11T01:54:25;103201.39;;;8.50;88.01
61488;BME280;47351;53.326;-6.298;2023-02-11T01:57:56;103203.08;;;8.42;87.96
61488;BME280;47351;53.326;-6.298;2023-02-11T02:00:57;103201.52;;;8.37;88.23
61488;BME280;47351;53.326;-6.298;2023-02-11T02:04:11;103199.29;;;8.32;88.40
61488;BME280;47351;53.326;-6.298;2023-02-11T02:07:21;103197.15;;;8.29;88.51
61488;BME280;47351;53.326;-6.298;2023-02-11T02:10:36;103201.76;;;8.26;88.74
61488;BME280;47351;53.326;-6.298;2023-02-11T02:13:50;103201.37;;;8.23;88.84
61488;BME280;47351;53.326;-6.298;2023-02-11T02:16:41;103201.66;;;8.21;89.20
61488;BME280;47351;53.326;-6.298;2023-02-11T02:33:19;103186.39;;;8.24;89.18
61488;BME280;47351;53.326;-6.298;2023-02-11T02:36:30;103190.46;;;8.25;89.14
61488;BME280;47351;53.326;-6.298;2023-02-11T02:39:37;103199.11;;;8.26;89.16
61488;BME280;47351;53.326;-6.298;2023-02-11T02:42:49;103195.77;;;8.28;89.04
61488;BME280;47351;53.326;-6.298;2023-02-11T02:46:10;103186.78;;;8.30;88.90
61488;BME280;47351;53.326;-6.298;2023-02-11T02:49:12;103190.61;;;8.32;88.89
61488;BME280;47351;53.326;-6.298;2023-02-11T02:52:22;103190.30;;;8.34;88.87
61488;BME280;47351;53.326;-6.298;2023-02-11T02:55:46;103190.13;;;8.38;88.89
61488;BME280;47351;53.326;-6.298;2023-02-11T02:59:11;103187.00;;;8.40;88.63
61488;BME280;47351;53.326;-6.298;2023-02-11T03:02:19;103184.65;;;8.40;88.54
61488;BME280;47351;53.326;-6.298;2023-02-11T03:05:35;103178.80;;;8.40;88.41
61488;BME280;47351;53.326;-6.298;2023-02-11T03:08:52;103168.94;;;8.38;88.31
61488;BME280;47351;53.326;-6.298;2023-02-11T03:12:03;103163.52;;;8.36;88.37
61488;BME280;47351;53.326;-6.298;2023-02-11T03:15:07;103156.50;;;8.34;88.37
61488;BME280;47351;53.326;-6.298;2023-02-11T03:18:19;103154.14;;;8.31;88.40
61488;BME280;47351;53.326;-6.298;2023-02-11T03:21:32;103153.59;;;8.28;88.56
61488;BME280;47351;53.326;-6.298;2023-02-11T03:24:47;103151.41;;;8.26;88.62
61488;BME280;47351;53.326;-6.298;2023-02-11T03:27:58;103148.66;;;8.24;88.66
61488;BME280;47351;53.326;-6.298;2023-02-11T03:30:58;103155.27;;;8.24;88.61
61488;BME280;47351;53.326;-6.298;2023-02-11T03:34:05;103154.48;;;8.25;88.65
61488;BME280;47351;53.326;-6.298;2023-02-11T03:37:02;103155.23;;;8.28;88.55
61488;BME280;47351;53.326;-6.298;2023-02-11T03:40:16;103148.54;;;8.30;88.37
61488;BME280;47351;53.326;-6.298;2023-02-11T03:43:29;103154.34;;;8.31;88.23
61488;BME280;47351;53.326;-6.298;2023-02-11T03:46:41;103155.19;;;8.32;88.12
61488;BME280;47351;53.326;-6.298;2023-02-11T03:49:54;103156.78;;;8.32;88.03
61488;BME280;47351;53.326;-6.298;2023-02-11T03:53:07;103157.51;;;8.32;88.04
61488;BME280;47351;53.326;-6.298;2023-02-11T03:56:20;103155.78;;;8.31;87.97
61488;BME280;47351;53.326;-6.298;2023-02-11T03:59:22;103157.45;;;8.30;88.01
61488;BME280;47351;53.326;-6.298;2023-02-11T04:02:34;103161.52;;;8.30;88.15
61488;BME280;47351;53.326;-6.298;2023-02-11T04:05:36;103162.94;;;8.30;88.44
61488;BME280;47351;53.326;-6.298;2023-02-11T04:08:47;103162.48;;;8.32;88.58
61488;BME280;47351;53.326;-6.298;2023-02-11T04:11:51;103161.79;;;8.32;88.68
61488;BME280;47351;53.326;-6.298;2023-02-11T04:15:02;103162.10;;;8.33;88.69
61488;BME280;47351;53.326;-6.298;2023-02-11T04:18:06;103162.39;;;8.34;88.75
61488;BME280;47351;53.326;-6.298;2023-02-11T04:21:17;103163.42;;;8.34;88.84
61488;BME280;47351;53.326;-6.298;2023-02-11T04:24:27;103167.55;;;8.33;88.94
61488;BME280;47351;53.326;-6.298;2023-02-11T04:27:38;103170.80;;;8.33;88.80
61488;BME280;47351;53.326;-6.298;2023-02-11T04:30:32;103169.09;;;8.31;88.91
61488;BME280;47351;53.326;-6.298;2023-02-11T04:33:42;103164.05;;;8.29;88.88
61488;BME280;47351;53.326;-6.298;2023-02-11T04:36:54;103168.14;;;8.29;88.90
61488;BME280;47351;53.326;-6.298;2023-02-11T04:39:55;103171.29;;;8.30;89.00
61488;BME280;47351;53.326;-6.298;2023-02-11T04:42:57;103173.50;;;8.32;89.05
61488;BME280;47351;53.326;-6.298;2023-02-11T04:46:02;103171.82;;;8.34;89.01
61488;BME280;47351;53.326;-6.298;2023-02-11T04:49:03;103170.47;;;8.36;88.99
61488;BME280;47351;53.326;-6.298;2023-02-11T04:52:14;103171.95;;;8.39;89.01
61488;BME280;47351;53.326;-6.298;2023-02-11T04:55:25;103176.95;;;8.42;88.90
61488;BME280;47351;53.326;-6.298;2023-02-11T04:58:36;103176.62;;;8.44;88.79
61488;BME280;47351;53.326;-6.298;2023-02-11T05:01:46;103178.13;;;8.46;88.67
61488;BME280;47351;53.326;-6.298;2023-02-11T05:04:57;103181.16;;;8.46;88.49
61488;BME280;47351;53.326;-6.298;2023-02-11T05:08:09;103180.70;;;8.45;88.23
61488;BME280;47351;53.326;-6.298;2023-02-11T05:11:10;103176.87;;;8.43;88.17
61488;BME280;47351;53.326;-6.298;2023-02-11T05:14:23;103176.36;;;8.43;88.06
61488;BME280;47351;53.326;-6.298;2023-02-11T05:17:34;103179.17;;;8.43;88.06
61488;BME280;47351;53.326;-6.298;2023-02-11T05:20:36;103181.27;;;8.44;87.97
61488;BME280;47351;53.326;-6.298;2023-02-11T05:23:47;103183.00;;;8.45;87.92
61488;BME280;47351;53.326;-6.298;2023-02-11T05:26:51;103182.35;;;8.47;87.85
61488;BME280;47351;53.326;-6.298;2023-02-11T05:30:02;103180.27;;;8.49;87.89
61488;BME280;47351;53.326;-6.298;2023-02-11T05:33:14;103181.66;;;8.53;87.74
61488;BME280;47351;53.326;-6.298;2023-02-11T05:36:25;103179.41;;;8.55;87.64
61488;BME280;47351;53.326;-6.298;2023-02-11T05:39:38;103180.96;;;8.56;87.41
61488;BME280;47351;53.326;-6.298;2023-02-11T05:42:38;103185.42;;;8.56;87.35
61488;BME280;47351;53.326;-6.298;2023-02-11T05:45:49;103184.95;;;8.55;87.19
61488;BME280;47351;53.326;-6.298;2023-02-11T05:49:01;103183.94;;;8.53;87.07
61488;BME280;47351;53.326;-6.298;2023-02-11T05:52:07;103183.32;;;8.52;86.98
61488;BME280;47351;53.326;-6.298;2023-02-11T05:55:00;103185.88;;;8.51;86.95
61488;BME280;47351;53.326;-6.298;2023-02-11T05:57:54;103187.40;;;8.49;86.83
61488;BME280;47351;53.326;-6.298;2023-02-11T06:01:00;103186.29;;;8.47;86.95
61488;BME280;47351;53.326;-6.298;2023-02-11T06:04:02;103188.54;;;8.44;86.98
61488;BME280;47351;53.326;-6.298;2023-02-11T06:07:04;103189.51;;;8.43;86.86
61488;BME280;47351;53.326;-6.298;2023-02-11T06:10:16;103191.11;;;8.43;87.00
61488;BME280;47351;53.326;-6.298;2023-02-11T06:13:16;103193.23;;;8.44;87.18
61488;BME280;47351;53.326;-6.298;2023-02-11T06:16:21;103185.75;;;8.43;87.16
61488;BME280;47351;53.326;-6.298;2023-02-11T06:19:25;103187.45;;;8.45;87.27
61488;BME280;47351;53.326;-6.298;2023-02-11T06:22:36;103186.09;;;8.47;87.37
61488;BME280;47351;53.326;-6.298;2023-02-11T06:25:46;103187.00;;;8.50;87.25
61488;BME280;47351;53.326;-6.298;2023-02-11T06:28:41;103181.05;;;8.51;87.11
61488;BME280;47351;53.326;-6.298;2023-02-11T06:31:51;103179.60;;;8.52;86.83
61488;BME280;47351;53.326;-6.298;2023-02-11T06:34:50;103181.26;;;8.50;86.70
61488;BME280;47351;53.326;-6.298;2023-02-11T06:37:44;103186.34;;;8.49;86.55
61488;BME280;47351;53.326;-6.298;2023-02-11T06:40:50;103184.67;;;8.47;86.49
61488;BME280;47351;53.326;-6.298;2023-02-11T06:43:54;103185.70;;;8.44;86.44
61488;BME280;47351;53.326;-6.298;2023-02-11T06:46:57;103186.11;;;8.43;86.36
61488;BME280;47351;53.326;-6.298;2023-02-11T06:50:09;103186.09;;;8.44;86.23
61488;BME280;47351;53.326;-6.298;2023-02-11T06:53:05;103184.27;;;8.44;86.33
61488;BME280;47351;53.326;-6.298;2023-02-11T06:56:18;103184.41;;;8.45;86.31
61488;BME280;47351;53.326;-6.298;2023-02-11T06:59:13;103190.02;;;8.46;86.25
61488;BME280;47351;53.326;-6.298;2023-02-11T07:02:07;103189.04;;;8.48;86.21
61488;BME280;47351;53.326;-6.298;2023-02-11T07:05:18;103187.23;;;8.49;86.06
61488;BME280;47351;53.326;-6.298;2023-02-11T07:08:12;103187.19;;;8.50;85.92
61488;BME280;47351;53.326;-6.298;2023-02-11T07:11:15;103189.18;;;8.49;85.79
61488;BME280;47351;53.326;-6.298;2023-02-11T07:14:09;103195.52;;;8.47;85.47
61488;BME280;47351;53.326;-6.298;2023-02-11T07:17:04;103197.77;;;8.45;85.46
61488;BME280;47351;53.326;-6.298;2023-02-11T07:20:15;103195.20;;;8.43;85.46
61488;BME280;47351;53.326;-6.298;2023-02-11T07:23:27;103197.00;;;8.43;85.25
61488;BME280;47351;53.326;-6.298;2023-02-11T07:26:31;103197.88;;;8.43;85.15
61488;BME280;47351;53.326;-6.298;2023-02-11T07:29:42;103196.70;;;8.45;84.87
61488;BME280;47351;53.326;-6.298;2023-02-11T07:32:37;103195.23;;;8.46;84.74
61488;BME280;47351;53.326;-6.298;2023-02-11T07:35:48;103201.40;;;8.50;84.64
61488;BME280;47351;53.326;-6.298;2023-02-11T07:38:59;103205.84;;;8.53;84.61
61488;BME280;47351;53.326;-6.298;2023-02-11T07:42:10;103212.49;;;8.56;84.36
61488;BME280;47351;53.326;-6.298;2023-02-11T07:45:21;103214.95;;;8.56;84.20
61488;BME280;47351;53.326;-6.298;2023-02-11T07:48:33;103219.20;;;8.56;83.94
61488;BME280;47351;53.326;-6.298;2023-02-11T07:51:28;103219.27;;;8.55;83.73
61488;BME280;47351;53.326;-6.298;2023-02-11T07:54:39;103219.64;;;8.55;83.43
61488;BME280;47351;53.326;-6.298;2023-02-11T07:57:50;103220.73;;;8.54;83.21
61488;BME280;47351;53.326;-6.298;2023-02-11T08:01:01;103222.61;;;8.53;82.97
61488;BME280;47351;53.326;-6.298;2023-02-11T08:04:21;103226.02;;;8.52;82.64
61488;BME280;47351;53.326;-6.298;2023-02-11T08:07:23;103227.86;;;8.54;82.58
61488;BME280;47351;53.326;-6.298;2023-02-11T08:10:33;103226.49;;;8.56;82.48
61488;BME280;47351;53.326;-6.298;2023-02-11T08:13:38;103219.35;;;8.60;82.41
61488;BME280;47351;53.326;-6.298;2023-02-11T08:16:37;103221.94;;;8.65;82.27
61488;BME280;47351;53.326;-6.298;2023-02-11T08:19:48;103223.45;;;8.70;82.03
61488;BME280;47351;53.326;-6.298;2023-02-11T08:23:00;103226.98;;;8.74;81.81
61488;BME280;47351;53.326;-6.298;2023-02-11T08:26:02;103227.16;;;8.77;81.52
61488;BME280;47351;53.326;-6.298;2023-02-11T08:28:56;103227.92;;;8.79;81.33
61488;BME280;47351;53.326;-6.298;2023-02-11T08:32:07;103226.28;;;8.80;80.98
61488;BME280;47351;53.326;-6.298;2023-02-11T08:35:18;103231.42;;;8.80;80.81
61488;BME280;47351;53.326;-6.298;2023-02-11T08:38:29;103235.48;;;8.81;80.60
61488;BME280;47351;53.326;-6.298;2023-02-11T08:41:36;103238.30;;;8.81;80.36
61488;BME280;47351;53.326;-6.298;2023-02-11T08:44:39;103243.04;;;8.83;80.07
61488;BME280;47351;53.326;-6.298;2023-02-11T08:47:43;103246.06;;;8.86;79.90
61488;BME280;47351;53.326;-6.298;2023-02-11T08:50:54;103247.05;;;8.91;79.71
61488;BME280;47351;53.326;-6.298;2023-02-11T08:54:05;103247.42;;;8.97;79.59
61488;BME280;47351;53.326;-6.298;2023-02-11T08:56:58;103251.86;;;9.03;79.36
61488;BME280;47351;53.326;-6.298;2023-02-11T09:00:05;103255.40;;;9.10;78.98
61488;BME280;47351;53.326;-6.298;2023-02-11T09:03:15;103260.48;;;9.15;78.68
61488;BME280;47351;53.326;-6.298;2023-02-11T09:06:26;103266.89;;;9.18;78.37
61488;BME280;47351;53.326;-6.298;2023-02-11T09:09:20;103275.14;;;9.20;78.07
61488;BME280;47351;53.326;-6.298;2023-02-11T09:12:31;103275.04;;;9.22;77.89
61488;BME280;47351;53.326;-6.298;2023-02-11T09:15:25;103273.89;;;9.24;77.78
61488;BME280;47351;53.326;-6.298;2023-02-11T09:18:36;103279.98;;;9.26;77.66
61488;BME280;47351;53.326;-6.298;2023-02-11T09:21:47;103286.55;;;9.30;77.35
61488;BME280;47351;53.326;-6.298;2023-02-11T09:24:39;103291.83;;;9.35;77.08
61488;BME280;47351;53.326;-6.298;2023-02-11T09:27:50;103296.35;;;9.39;76.88
61488;BME280;47351;53.326;-6.298;2023-02-11T09:30:55;103298.08;;;9.47;76.91
61488;BME280;47351;53.326;-6.298;2023-02-11T09:33:50;103298.55;;;9.54;76.92
61488;BME280;47351;53.326;-6.298;2023-02-11T09:36:54;103296.86;;;9.62;77.08
61488;BME280;47351;53.326;-6.298;2023-02-11T09:40:05;103294.77;;;9.67;76.91
61488;BME280;47351;53.326;-6.298;2023-02-11T09:43:01;103294.23;;;9.70;76.72
61488;BME280;47351;53.326;-6.298;2023-02-11T09:46:07;103292.69;;;9.72;76.50
61488;BME280;47351;53.326;-6.298;2023-02-11T09:49:04;103296.43;;;9.72;76.36
61488;BME280;47351;53.326;-6.298;2023-02-11T09:52:12;103303.80;;;9.71;76.18
61488;BME280;47351;53.326;-6.298;2023-02-11T09:55:14;103306.36;;;9.70;76.09
61488;BME280;47351;53.326;-6.298;2023-02-11T09:58:28;103309.14;;;9.68;75.94
61488;BME280;47351;53.326;-6.298;2023-02-11T10:01:38;103312.92;;;9.67;75.80
61488;BME280;47351;53.326;-6.298;2023-02-11T10:04:52;103316.25;;;9.68;75.65
61488;BME280;47351;53.326;-6.298;2023-02-11T10:08:02;103315.77;;;9.71;75.54
61488;BME280;47351;53.326;-6.298;2023-02-11T10:11:25;103315.95;;;9.74;75.34
61488;BME280;47351;53.326;-6.298;2023-02-11T10:14:28;103318.82;;;9.76;75.17
61488;BME280;47351;53.326;-6.298;2023-02-11T10:17:34;103315.14;;;9.82;75.19
61488;BME280;47351;53.326;-6.298;2023-02-11T10:20:32;103312.81;;;9.88;74.96
61488;BME280;47351;53.326;-6.298;2023-02-11T10:23:45;103312.66;;;9.91;74.43
61488;BME280;47351;53.326;-6.298;2023-02-11T10:26:50;103312.58;;;9.92;74.30
61488;BME280;47351;53.326;-6.298;2023-02-11T10:30:03;103314.64;;;9.93;74.14
61488;BME280;47351;53.326;-6.298;2023-02-11T10:33:01;103316.32;;;9.95;74.01
61488;BME280;47351;53.326;-6.298;2023-02-11T10:36:13;103314.55;;;9.98;73.90
61488;BME280;47351;53.326;-6.298;2023-02-11T10:39:25;103319.20;;;10.04;73.61
61488;BME280;47351;53.326;-6.298;2023-02-11T10:42:26;103326.23;;;10.09;73.48
61488;BME280;47351;53.326;-6.298;2023-02-11T10:45:29;103325.42;;;10.16;73.30
61488;BME280;47351;53.326;-6.298;2023-02-11T10:48:38;103324.27;;;10.24;72.99
61488;BME280;47351;53.326;-6.298;2023-02-11T10:51:32;103324.73;;;10.31;72.49
61488;BME280;47351;53.326;-6.298;2023-02-11T10:54:34;103325.56;;;10.38;72.32
61488;BME280;47351;53.326;-6.298;2023-02-11T10:57:42;103322.88;;;10.47;71.84
61488;BME280;47351;53.326;-6.298;2023-02-11T11:00:54;103318.27;;;10.55;71.56
61488;BME280;47351;53.326;-6.298;2023-02-11T11:03:54;103315.45;;;10.63;71.56
61488;BME280;47351;53.326;-6.298;2023-02-11T11:07:08;103318.75;;;10.68;71.17
61488;BME280;47351;53.326;-6.298;2023-02-11T11:10:24;103314.89;;;10.73;70.71
61488;BME280;47351;53.326;-6.298;2023-02-11T11:13:26;103311.30;;;10.79;70.31
61488;BME280;47351;53.326;-6.298;2023-02-11T11:16:38;103310.42;;;10.87;69.87
61488;BME280;47351;53.326;-6.298;2023-02-11T11:19:56;103307.94;;;10.98;69.66
61488;BME280;47351;53.326;-6.298;2023-02-11T11:23:13;103307.89;;;11.12;69.33
61488;BME280;47351;53.326;-6.298;2023-02-11T11:26:13;103311.62;;;11.19;68.62
61488;BME280;47351;53.326;-6.298;2023-02-11T11:29:09;103312.96;;;11.23;68.62
61488;BME280;47351;53.326;-6.298;2023-02-11T11:32:24;103311.71;;;11.26;67.98
61488;BME280;47351;53.326;-6.298;2023-02-11T11:35:24;103312.27;;;11.34;67.70
61488;BME280;47351;53.326;-6.298;2023-02-11T11:38:16;103310.91;;;11.43;67.42
61488;BME280;47351;53.326;-6.298;2023-02-11T11:41:13;103309.23;;;11.53;67.41
61488;BME280;47351;53.326;-6.298;2023-02-11T11:44:22;103304.27;;;11.63;66.70
61488;BME280;47351;53.326;-6.298;2023-02-11T11:47:17;103300.21;;;11.72;66.21
61488;BME280;47351;53.326;-6.298;2023-02-11T11:53:28;103302.58;;;11.94;66.00
61488;BME280;47351;53.326;-6.298;2023-02-11T11:56:26;103301.02;;;11.98;65.52
61488;BME280;47351;53.326;-6.298;2023-02-11T11:59:28;103302.59;;;12.07;65.08
61488;BME280;47351;53.326;-6.298;2023-02-11T12:02:25;103304.11;;;12.11;64.57
61488;BME280;47351;53.326;-6.298;2023-02-11T12:05:47;103302.70;;;12.08;64.21
61488;BME280;47351;53.326;-6.298;2023-02-11T12:08:43;103298.52;;;12.09;64.04
61488;BME280;47351;53.326;-6.298;2023-02-11T12:11:43;103287.91;;;12.17;63.78
61488;BME280;47351;53.326;-6.298;2023-02-11T12:14:44;103285.63;;;12.19;63.60
61488;BME280;47351;53.326;-6.298;2023-02-11T12:17:43;103284.70;;;12.17;63.64
61488;BME280;47351;53.326;-6.298;2023-02-11T12:20:42;103284.61;;;12.19;63.68
61488;BME280;47351;53.326;-6.298;2023-02-11T12:23:43;103280.35;;;12.23;63.58
61488;BME280;47351;53.326;-6.298;2023-02-11T12:26:40;103271.71;;;12.26;63.33
61488;BME280;47351;53.326;-6.298;2023-02-11T12:29:34;103273.20;;;12.31;62.76
61488;BME280;47351;53.326;-6.298;2023-02-11T12:32:31;103275.23;;;12.30;62.66
61488;BME280;47351;53.326;-6.298;2023-02-11T12:35:36;103273.29;;;12.27;62.39
61488;BME280;47351;53.326;-6.298;2023-02-11T12:38:37;103267.86;;;12.28;61.91
61488;BME280;47351;53.326;-6.298;2023-02-11T12:41:54;103268.61;;;12.27;61.67
61488;BME280;47351;53.326;-6.298;2023-02-11T12:45:15;103272.58;;;12.24;61.89
61488;BME280;47351;53.326;-6.298;2023-02-11T12:48:20;103275.00;;;12.20;62.00
61488;BME280;47351;53.326;-6.298;2023-02-11T12:51:35;103285.08;;;12.14;61.83
61488;BME280;47351;53.326;-6.298;2023-02-11T12:54:42;103287.52;;;12.07;61.98
61488;BME280;47351;53.326;-6.298;2023-02-11T12:57:56;103287.30;;;12.05;61.98
61488;BME280;47351;53.326;-6.298;2023-02-11T13:01:02;103283.53;;;12.00;61.56
61488;BME280;47351;53.326;-6.298;2023-02-11T13:04:07;103278.41;;;11.96;61.48
61488;BME280;47351;53.326;-6.298;2023-02-11T13:07:03;103278.45;;;11.91;61.14
61488;BME280;47351;53.326;-6.298;2023-02-11T13:09:57;103276.29;;;11.86;61.01
61488;BME280;47351;53.326;-6.298;2023-02-11T13:12:49;103270.75;;;11.86;60.88
61488;BME280;47351;53.326;-6.298;2023-02-11T13:16:05;103268.93;;;11.86;60.33
61488;BME280;47351;53.326;-6.298;2023-02-11T13:19:02;103270.15;;;11.83;59.79
61488;BME280;47351;53.326;-6.298;2023-02-11T13:22:06;103276.21;;;11.76;59.62
61488;BME280;47351;53.326;-6.298;2023-02-11T13:25:21;103278.96;;;11.70;59.57
61488;BME280;47351;53.326;-6.298;2023-02-11T13:28:31;103279.20;;;11.71;59.94
61488;BME280;47351;53.326;-6.298;2023-02-11T13:31:25;103278.44;;;11.75;59.59
61488;BME280;47351;53.326;-6.298;2023-02-11T13:34:25;103278.02;;;11.76;59.17
61488;BME280;47351;53.326;-6.298;2023-02-11T13:37:19;103276.09;;;11.75;58.96
61488;BME280;47351;53.326;-6.298;2023-02-11T13:40:19;103279.69;;;11.80;59.01
61488;BME280;47351;53.326;-6.298;2023-02-11T13:43:17;103276.54;;;11.90;58.60
61488;BME280;47351;53.326;-6.298;2023-02-11T13:46:20;103269.69;;;12.04;58.46
61488;BME280;47351;53.326;-6.298;2023-02-11T13:49:35;103266.39;;;12.20;58.15
61488;BME280;47351;53.326;-6.298;2023-02-11T13:52:32;103262.27;;;12.33;57.88
61488;BME280;47351;53.326;-6.298;2023-02-11T13:55:46;103255.52;;;12.43;57.96
61488;BME280;47351;53.326;-6.298;2023-02-11T13:58:38;103251.48;;;12.49;57.84
61488;BME280;47351;53.326;-6.298;2023-02-11T14:01:40;103246.25;;;12.52;57.61
61488;BME280;47351;53.326;-6.298;2023-02-11T14:04:31;103241.95;;;12.60;57.53
61488;BME280;47351;53.326;-6.298;2023-02-11T14:07:39;103231.17;;;12.70;57.56
61488;BME280;47351;53.326;-6.298;2023-02-11T14:11:07;103227.65;;;12.77;57.43
61488;BME280;47351;53.326;-6.298;2023-02-11T14:14:12;103223.62;;;12.78;56.90
61488;BME280;47351;53.326;-6.298;2023-02-11T14:20:35;103218.77;;;12.78;56.65
61488;BME280;47351;53.326;-6.298;2023-02-11T14:23:26;103216.13;;;12.80;56.43
61488;BME280;47351;53.326;-6.298;2023-02-11T14:26:26;103213.57;;;12.79;56.50
61488;BME280;47351;53.326;-6.298;2023-02-11T14:29:22;103210.82;;;12.76;56.37
61488;BME280;47351;53.326;-6.298;2023-02-11T14:32:32;103210.38;;;12.73;56.10
61488;BME280;47351;53.326;-6.298;2023-02-11T14:35:40;103204.64;;;12.68;56.02
61488;BME280;47351;53.326;-6.298;2023-02-11T14:38:51;103199.29;;;12.63;55.99
61488;BME280;47351;53.326;-6.298;2023-02-11T14:41:46;103201.80;;;12.58;56.16
61488;BME280;47351;53.326;-6.298;2023-02-11T14:44:41;103200.23;;;12.50;56.00
61488;BME280;47351;53.326;-6.298;2023-02-11T14:47:34;103204.41;;;12.39;56.12
61488;BME280;47351;53.326;-6.298;2023-02-11T14:50:32;103205.11;;;12.29;56.18
61488;BME280;47351;53.326;-6.298;2023-02-11T14:53:26;103204.16;;;12.17;56.11
61488;BME280;47351;53.326;-6.298;2023-02-11T14:56:20;103207.03;;;12.06;56.32
61488;BME280;47351;53.326;-6.298;2023-02-11T14:59:19;103206.53;;;11.98;56.73
61488;BME280;47351;53.326;-6.298;2023-02-11T15:02:22;103206.23;;;11.92;57.01
61488;BME280;47351;53.326;-6.298;2023-02-11T15:05:15;103209.90;;;11.86;57.03
61488;BME280;47351;53.326;-6.298;2023-02-11T15:08:17;103209.23;;;11.77;57.14
61488;BME280;47351;53.326;-6.298;2023-02-11T15:11:30;103210.83;;;11.69;57.35
61488;BME280;47351;53.326;-6.298;2023-02-11T15:14:43;103213.52;;;11.64;57.44
61488;BME280;47351;53.326;-6.298;2023-02-11T15:17:56;103216.86;;;11.56;57.59
61488;BME280;47351;53.326;-6.298;2023-02-11T15:21:08;103220.64;;;11.51;57.89
61488;BME280;47351;53.326;-6.298;2023-02-11T15:24:24;103220.73;;;11.44;57.93
61488;BME280;47351;53.326;-6.298;2023-02-11T15:27:15;103218.09;;;11.38;58.38
61488;BME280;47351;53.326;-6.298;2023-02-11T15:30:21;103220.14;;;11.32;58.85
61488;BME280;47351;53.326;-6.298;2023-02-11T15:33:20;103222.96;;;11.27;58.97
61488;BME280;47351;53.326;-6.298;2023-02-11T15:36:24;103222.42;;;11.21;59.15
61488;BME280;47351;53.326;-6.298;2023-02-11T15:39:35;103225.05;;;11.17;59.54
61488;BME280;47351;53.326;-6.298;2023-02-11T15:42:38;103226.22;;;11.12;59.85
61488;BME280;47351;53.326;-6.298;2023-02-11T15:45:41;103225.52;;;11.07;60.01
61488;BME280;47351;53.326;-6.298;2023-02-11T15:48:53;103222.73;;;11.03;60.29
61488;BME280;47351;53.326;-6.298;2023-02-11T15:52:05;103223.29;;;10.97;60.29
61488;BME280;47351;53.326;-6.298;2023-02-11T15:55:17;103226.34;;;10.94;60.44
61488;BME280;47351;53.326;-6.298;2023-02-11T15:58:29;103227.32;;;10.93;60.91
61488;BME280;47351;53.326;-6.298;2023-02-11T16:01:29;103233.36;;;10.90;60.98
61488;BME280;47351;53.326;-6.298;2023-02-11T16:04:23;103233.23;;;10.84;60.93
61488;BME280;47351;53.326;-6.298;2023-02-11T16:07:41;103234.64;;;10.79;60.94
61488;BME280;47351;53.326;-6.298;2023-02-11T16:10:56;103232.23;;;10.72;61.30
61488;BME280;47351;53.326;-6.298;2023-02-11T16:14:00;103227.55;;;10.66;61.49
61488;BME280;47351;53.326;-6.298;2023-02-11T16:17:04;103226.76;;;10.62;61.70
61488;BME280;47351;53.326;-6.298;2023-02-11T16:23:12;103224.48;;;10.50;62.03
61488;BME280;47351;53.326;-6.298;2023-02-11T16:26:21;103228.91;;;10.45;62.29
61488;BME280;47351;53.326;-6.298;2023-02-11T16:29:34;103234.49;;;10.41;62.60